Eppards Point, Illinois
Current Conditions -  °F | °C
As of 3:15 AM on Thursday 27 Nov 2014 (Local Time) from KPNT Reporting Station
Haze Haze  
Wind Chill: 12°   Ceiling: 3600
Heat Index: 24°   Visibility: 5mi
Dew Point: 21°   Wind: 13mph
Humidity: 90%   Direction: 300°WNW
Pressure: 30.28"   Gusts: 21mph
Location:  40.8602°N, 88.6284°W
Report Text: KPNT 270915Z AUTO 30011G18KT 5SM BR BKN036 OVC095 M05/M06 A3028 RMK AO2 T10471061
Loading
Personal Weather Stations






























Interactive Weather Map New forecast layout! Learn more

10-Day Weather Forecast

Advertisements
Track Severe Weather on mobile